sensor_id;sensor_type;location;lat;lon;timestamp;temperature;humidity
67354;SHT30;54238;52.278;21.056;2023-03-01T00:01:27;0.10;65.95
67354;SHT30;54238;52.278;21.056;2023-03-01T00:03:59;0.10;65.99
67354;SHT30;54238;52.278;21.056;2023-03-01T00:06:26;0.10;65.97
67354;SHT30;54238;52.278;21.056;2023-03-01T00:08:56;0.11;66.05
67354;SHT30;54238;52.278;21.056;2023-03-01T00:11:27;0.11;66.09
67354;SHT30;54238;52.278;21.056;2023-03-01T00:13:58;0.09;66.14
67354;SHT30;54238;52.278;21.056;2023-03-01T00:16:38;0.08;66.29
67354;SHT30;54238;52.278;21.056;2023-03-01T00:19:13;0.05;66.46
67354;SHT30;54238;52.278;21.056;2023-03-01T00:21:49;0.04;66.58
67354;SHT30;54238;52.278;21.056;2023-03-01T00:24:18;0.02;66.61
67354;SHT30;54238;52.278;21.056;2023-03-01T00:26:48;0.01;66.78
67354;SHT30;54238;52.278;21.056;2023-03-01T00:29:24;-0.00;67.14
67354;SHT30;54238;52.278;21.056;2023-03-01T00:31:56;-0.03;67.44
67354;SHT30;54238;52.278;21.056;2023-03-01T00:34:28;-0.04;67.52
67354;SHT30;54238;52.278;21.056;2023-03-01T00:37:00;-0.06;67.67
67354;SHT30;54238;52.278;21.056;2023-03-01T00:39:31;-0.07;67.72
67354;SHT30;54238;52.278;21.056;2023-03-01T00:42:04;-0.08;67.61
67354;SHT30;54238;52.278;21.056;2023-03-01T00:44:34;-0.07;67.82
67354;SHT30;54238;52.278;21.056;2023-03-01T00:47:06;-0.07;67.95
67354;SHT30;54238;52.278;21.056;2023-03-01T00:49:37;-0.07;68.12
67354;SHT30;54238;52.278;21.056;2023-03-01T00:52:07;-0.07;68.19
67354;SHT30;54238;52.278;21.056;2023-03-01T00:54:39;-0.08;68.28
67354;SHT30;54238;52.278;21.056;2023-03-01T00:57:06;-0.10;68.39
67354;SHT30;54238;52.278;21.056;2023-03-01T00:59:35;-0.10;68.44
67354;SHT30;54238;52.278;21.056;2023-03-01T01:02:04;-0.10;68.39
67354;SHT30;54238;52.278;21.056;2023-03-01T01:04:36;-0.12;68.50
67354;SHT30;54238;52.278;21.056;2023-03-01T01:07:03;-0.13;68.49
67354;SHT30;54238;52.278;21.056;2023-03-01T01:09:35;-0.14;68.46
67354;SHT30;54238;52.278;21.056;2023-03-01T01:12:05;-0.15;68.56
67354;SHT30;54238;52.278;21.056;2023-03-01T01:14:38;-0.14;68.68
67354;SHT30;54238;52.278;21.056;2023-03-01T01:17:08;-0.15;68.61
67354;SHT30;54238;52.278;21.056;2023-03-01T01:19:40;-0.14;68.45
67354;SHT30;54238;52.278;21.056;2023-03-01T01:22:10;-0.14;68.48
67354;SHT30;54238;52.278;21.056;2023-03-01T01:24:42;-0.13;68.43
67354;SHT30;54238;52.278;21.056;2023-03-01T01:27:16;-0.13;68.40
67354;SHT30;54238;52.278;21.056;2023-03-01T01:29:43;-0.14;68.39
67354;SHT30;54238;52.278;21.056;2023-03-01T01:32:15;-0.14;68.33
67354;SHT30;54238;52.278;21.056;2023-03-01T01:34:42;-0.14;68.30
67354;SHT30;54238;52.278;21.056;2023-03-01T01:37:09;-0.14;68.29
67354;SHT30;54238;52.278;21.056;2023-03-01T01:39:43;-0.13;68.20
67354;SHT30;54238;52.278;21.056;2023-03-01T01:42:19;-0.12;68.19
67354;SHT30;54238;52.278;21.056;2023-03-01T01:44:48;-0.11;68.19
67354;SHT30;54238;52.278;21.056;2023-03-01T01:47:57;-0.10;68.15
67354;SHT30;54238;52.278;21.056;2023-03-01T01:50:32;-0.10;68.13
67354;SHT30;54238;52.278;21.056;2023-03-01T01:53:10;-0.09;68.09
67354;SHT30;54238;52.278;21.056;2023-03-01T01:55:48;-0.07;68.01
67354;SHT30;54238;52.278;21.056;2023-03-01T01:58:28;-0.07;68.03
67354;SHT30;54238;52.278;21.056;2023-03-01T02:00:57;-0.06;67.94
67354;SHT30;54238;52.278;21.056;2023-03-01T02:03:29;-0.05;67.89
67354;SHT30;54238;52.278;21.056;2023-03-01T02:06:06;-0.05;67.80
67354;SHT30;54238;52.278;21.056;2023-03-01T02:08:47;-0.04;67.79
67354;SHT30;54238;52.278;21.056;2023-03-01T02:11:21;-0.03;67.79
67354;SHT30;54238;52.278;21.056;2023-03-01T02:13:55;-0.02;67.68
67354;SHT30;54238;52.278;21.056;2023-03-01T02:16:22;-0.03;67.61
67354;SHT30;54238;52.278;21.056;2023-03-01T02:18:49;-0.02;67.61
67354;SHT30;54238;52.278;21.056;2023-03-01T02:24:21;-0.01;67.70
67354;SHT30;54238;52.278;21.056;2023-03-01T02:27:11;-0.02;67.63
67354;SHT30;54238;52.278;21.056;2023-03-01T02:29:40;-0.04;67.72
67354;SHT30;54238;52.278;21.056;2023-03-01T02:32:12;-0.06;67.78
67354;SHT30;54238;52.278;21.056;2023-03-01T02:34:41;-0.07;67.75
67354;SHT30;54238;52.278;21.056;2023-03-01T02:37:11;-0.09;67.80
67354;SHT30;54238;52.278;21.056;2023-03-01T02:39:47;-0.10;67.80
67354;SHT30;54238;52.278;21.056;2023-03-01T02:42:26;-0.11;67.84
67354;SHT30;54238;52.278;21.056;2023-03-01T02:45:05;-0.12;67.84
67354;SHT30;54238;52.278;21.056;2023-03-01T02:47:37;-0.14;67.87
67354;SHT30;54238;52.278;21.056;2023-03-01T02:56:16;-0.17;68.04
67354;SHT30;54238;52.278;21.056;2023-03-01T02:58:46;-0.19;68.12
67354;SHT30;54238;52.278;21.056;2023-03-01T03:01:18;-0.22;68.27
67354;SHT30;54238;52.278;21.056;2023-03-01T03:03:47;-0.25;68.37
67354;SHT30;54238;52.278;21.056;2023-03-01T03:06:16;-0.25;68.41
67354;SHT30;54238;52.278;21.056;2023-03-01T03:08:46;-0.27;68.42
67354;SHT30;54238;52.278;21.056;2023-03-01T03:11:18;-0.29;68.42
67354;SHT30;54238;52.278;21.056;2023-03-01T03:13:46;-0.30;68.50
67354;SHT30;54238;52.278;21.056;2023-03-01T03:16:15;-0.30;68.48
67354;SHT30;54238;52.278;21.056;2023-03-01T03:18:44;-0.29;68.51
67354;SHT30;54238;52.278;21.056;2023-03-01T03:21:14;-0.31;68.65
67354;SHT30;54238;52.278;21.056;2023-03-01T03:23:45;-0.33;68.74
67354;SHT30;54238;52.278;21.056;2023-03-01T03:26:20;-0.35;68.83
67354;SHT30;54238;52.278;21.056;2023-03-01T03:28:47;-0.36;68.91
67354;SHT30;54238;52.278;21.056;2023-03-01T03:31:14;-0.38;68.90
67354;SHT30;54238;52.278;21.056;2023-03-01T03:33:46;-0.38;68.94
67354;SHT30;54238;52.278;21.056;2023-03-01T03:36:16;-0.39;68.82
67354;SHT30;54238;52.278;21.056;2023-03-01T03:38:52;-0.38;68.79
67354;SHT30;54238;52.278;21.056;2023-03-01T03:41:24;-0.36;68.74
67354;SHT30;54238;52.278;21.056;2023-03-01T03:43:54;-0.35;68.71
67354;SHT30;54238;52.278;21.056;2023-03-01T03:46:21;-0.34;68.59
67354;SHT30;54238;52.278;21.056;2023-03-01T03:48:48;-0.32;68.52
67354;SHT30;54238;52.278;21.056;2023-03-01T03:51:20;-0.30;68.50
67354;SHT30;54238;52.278;21.056;2023-03-01T03:53:51;-0.28;68.41
67354;SHT30;54238;52.278;21.056;2023-03-01T03:56:19;-0.27;68.40
67354;SHT30;54238;52.278;21.056;2023-03-01T03:58:52;-0.27;68.40
67354;SHT30;54238;52.278;21.056;2023-03-01T04:01:19;-0.27;68.37
67354;SHT30;54238;52.278;21.056;2023-03-01T04:03:50;-0.27;68.43
67354;SHT30;54238;52.278;21.056;2023-03-01T04:06:21;-0.28;68.54
67354;SHT30;54238;52.278;21.056;2023-03-01T04:08:48;-0.30;68.60
67354;SHT30;54238;52.278;21.056;2023-03-01T04:11:27;-0.32;68.67
67354;SHT30;54238;52.278;21.056;2023-03-01T04:13:55;-0.34;68.81
67354;SHT30;54238;52.278;21.056;2023-03-01T04:16:30;-0.36;68.77
67354;SHT30;54238;52.278;21.056;2023-03-01T04:18:59;-0.36;68.83
67354;SHT30;54238;52.278;21.056;2023-03-01T04:21:29;-0.38;68.89
67354;SHT30;54238;52.278;21.056;2023-03-01T04:23:56;-0.37;68.89
67354;SHT30;54238;52.278;21.056;2023-03-01T04:26:24;-0.38;68.90
67354;SHT30;54238;52.278;21.056;2023-03-01T04:28:51;-0.38;68.91
67354;SHT30;54238;52.278;21.056;2023-03-01T04:31:20;-0.39;68.94
67354;SHT30;54238;52.278;21.056;2023-03-01T04:33:52;-0.40;68.92
67354;SHT30;54238;52.278;21.056;2023-03-01T04:36:24;-0.41;69.07
67354;SHT30;54238;52.278;21.056;2023-03-01T04:38:57;-0.42;69.16
67354;SHT30;54238;52.278;21.056;2023-03-01T04:41:25;-0.46;69.25
67354;SHT30;54238;52.278;21.056;2023-03-01T04:43:53;-0.47;69.35
67354;SHT30;54238;52.278;21.056;2023-03-01T04:46:20;-0.49;69.38
67354;SHT30;54238;52.278;21.056;2023-03-01T04:48:53;-0.49;69.44
67354;SHT30;54238;52.278;21.056;2023-03-01T04:51:22;-0.50;69.53
67354;SHT30;54238;52.278;21.056;2023-03-01T04:53:52;-0.52;69.65
67354;SHT30;54238;52.278;21.056;2023-03-01T04:56:24;-0.52;69.68
67354;SHT30;54238;52.278;21.056;2023-03-01T04:58:53;-0.53;69.78
67354;SHT30;54238;52.278;21.056;2023-03-01T05:01:21;-0.54;69.86
67354;SHT30;54238;52.278;21.056;2023-03-01T05:03:49;-0.56;69.99
67354;SHT30;54238;52.278;21.056;2023-03-01T05:06:21;-0.55;69.93
67354;SHT30;54238;52.278;21.056;2023-03-01T05:08:50;-0.55;69.92
67354;SHT30;54238;52.278;21.056;2023-03-01T05:11:22;-0.56;69.96
67354;SHT30;54238;52.278;21.056;2023-03-01T05:13:49;-0.56;69.94
67354;SHT30;54238;52.278;21.056;2023-03-01T05:16:22;-0.55;69.89
67354;SHT30;54238;52.278;21.056;2023-03-01T05:18:51;-0.55;69.93
67354;SHT30;54238;52.278;21.056;2023-03-01T05:21:22;-0.56;69.95
67354;SHT30;54238;52.278;21.056;2023-03-01T05:23:49;-0.56;70.01
67354;SHT30;54238;52.278;21.056;2023-03-01T05:26:23;-0.57;70.09
67354;SHT30;54238;52.278;21.056;2023-03-01T05:28:55;-0.57;70.06
67354;SHT30;54238;52.278;21.056;2023-03-01T05:31:27;-0.58;70.02
67354;SHT30;54238;52.278;21.056;2023-03-01T05:33:59;-0.57;70.10
67354;SHT30;54238;52.278;21.056;2023-03-01T05:36:27;-0.57;70.11
67354;SHT30;54238;52.278;21.056;2023-03-01T05:38:54;-0.57;70.12
67354;SHT30;54238;52.278;21.056;2023-03-01T05:41:26;-0.57;70.11
67354;SHT30;54238;52.278;21.056;2023-03-01T05:43:56;-0.57;70.16
67354;SHT30;54238;52.278;21.056;2023-03-01T05:46:23;-0.56;70.22
67354;SHT30;54238;52.278;21.056;2023-03-01T05:48:51;-0.56;70.30
67354;SHT30;54238;52.278;21.056;2023-03-01T05:51:20;-0.55;70.36
67354;SHT30;54238;52.278;21.056;2023-03-01T05:53:51;-0.55;70.31
67354;SHT30;54238;52.278;21.056;2023-03-01T05:56:24;-0.54;70.34
67354;SHT30;54238;52.278;21.056;2023-03-01T05:58:51;-0.51;70.34
67354;SHT30;54238;52.278;21.056;2023-03-01T06:03:55;-0.47;70.33
67354;SHT30;54238;52.278;21.056;2023-03-01T06:06:23;-0.45;70.25
67354;SHT30;54238;52.278;21.056;2023-03-01T06:09:25;-0.41;70.26
67354;SHT30;54238;52.278;21.056;2023-03-01T06:11:52;-0.38;70.19
67354;SHT30;54238;52.278;21.056;2023-03-01T06:14:24;-0.38;70.25
67354;SHT30;54238;52.278;21.056;2023-03-01T06:16:55;-0.36;70.28
67354;SHT30;54238;52.278;21.056;2023-03-01T06:19:28;-0.35;70.25
67354;SHT30;54238;52.278;21.056;2023-03-01T06:22:00;-0.32;70.22
67354;SHT30;54238;52.278;21.056;2023-03-01T06:24:29;-0.29;70.15
67354;SHT30;54238;52.278;21.056;2023-03-01T06:27:01;-0.25;70.07
67354;SHT30;54238;52.278;21.056;2023-03-01T06:29:30;-0.19;69.92
67354;SHT30;54238;52.278;21.056;2023-03-01T06:31:59;-0.14;69.86
67354;SHT30;54238;52.278;21.056;2023-03-01T06:34:34;-0.11;69.73
67354;SHT30;54238;52.278;21.056;2023-03-01T06:37:09;-0.06;69.61
67354;SHT30;54238;52.278;21.056;2023-03-01T06:39:36;-0.01;69.49
67354;SHT30;54238;52.278;21.056;2023-03-01T06:42:07;0.03;69.37
67354;SHT30;54238;52.278;21.056;2023-03-01T06:44:36;0.09;69.29
67354;SHT30;54238;52.278;21.056;2023-03-01T06:47:04;0.15;69.15
67354;SHT30;54238;52.278;21.056;2023-03-01T06:49:36;0.21;69.00
67354;SHT30;54238;52.278;21.056;2023-03-01T06:52:07;0.25;68.84
67354;SHT30;54238;52.278;21.056;2023-03-01T06:54:42;0.31;68.65
67354;SHT30;54238;52.278;21.056;2023-03-01T06:57:09;0.36;68.52
67354;SHT30;54238;52.278;21.056;2023-03-01T06:59:38;0.43;68.41
67354;SHT30;54238;52.278;21.056;2023-03-01T07:02:05;0.48;68.22
67354;SHT30;54238;52.278;21.056;2023-03-01T07:04:35;0.52;68.00
67354;SHT30;54238;52.278;21.056;2023-03-01T07:07:02;0.55;67.86
67354;SHT30;54238;52.278;21.056;2023-03-01T07:09:29;0.60;67.80
67354;SHT30;54238;52.278;21.056;2023-03-01T07:11:58;0.66;67.73
67354;SHT30;54238;52.278;21.056;2023-03-01T07:14:31;0.73;67.53
67354;SHT30;54238;52.278;21.056;2023-03-01T07:16:58;0.78;67.32
67354;SHT30;54238;52.278;21.056;2023-03-01T07:19:25;0.84;67.16
67354;SHT30;54238;52.278;21.056;2023-03-01T07:21:52;0.89;67.19
67354;SHT30;54238;52.278;21.056;2023-03-01T07:24:22;0.95;67.01
67354;SHT30;54238;52.278;21.056;2023-03-01T07:26:49;1.02;66.88
67354;SHT30;54238;52.278;21.056;2023-03-01T07:29:20;1.08;66.65
67354;SHT30;54238;52.278;21.056;2023-03-01T07:31:50;1.12;66.41
67354;SHT30;54238;52.278;21.056;2023-03-01T07:34:20;1.16;66.37
67354;SHT30;54238;52.278;21.056;2023-03-01T07:36:49;1.23;66.27
67354;SHT30;54238;52.278;21.056;2023-03-01T07:39:24;1.31;66.19
67354;SHT30;54238;52.278;21.056;2023-03-01T07:41:51;1.43;66.25
67354;SHT30;54238;52.278;21.056;2023-03-01T07:44:23;1.58;66.01
67354;SHT30;54238;52.278;21.056;2023-03-01T07:46:55;1.71;65.63
67354;SHT30;54238;52.278;21.056;2023-03-01T07:49:24;1.83;65.56
67354;SHT30;54238;52.278;21.056;2023-03-01T07:51:58;1.99;65.42
67354;SHT30;54238;52.278;21.056;2023-03-01T07:54:28;2.12;64.87
67354;SHT30;54238;52.278;21.056;2023-03-01T07:56:56;2.25;64.60
67354;SHT30;54238;52.278;21.056;2023-03-01T07:59:25;2.37;64.28
67354;SHT30;54238;52.278;21.056;2023-03-01T08:01:56;2.51;64.07
67354;SHT30;54238;52.278;21.056;2023-03-01T08:04:24;2.68;63.95
67354;SHT30;54238;52.278;21.056;2023-03-01T08:06:55;2.86;63.39
67354;SHT30;54238;52.278;21.056;2023-03-01T08:09:25;3.02;63.01
67354;SHT30;54238;52.278;21.056;2023-03-01T08:11:58;3.19;63.07
67354;SHT30;54238;52.278;21.056;2023-03-01T08:14:30;3.39;62.80
67354;SHT30;54238;52.278;21.056;2023-03-01T08:17:01;3.64;62.59
67354;SHT30;54238;52.278;21.056;2023-03-01T08:19:30;3.84;61.92
67354;SHT30;54238;52.278;21.056;2023-03-01T08:21:57;4.03;61.37
67354;SHT30;54238;52.278;21.056;2023-03-01T08:24:27;4.14;60.84
67354;SHT30;54238;52.278;21.056;2023-03-01T08:26:59;4.32;60.85
67354;SHT30;54238;52.278;21.056;2023-03-01T08:29:26;4.49;60.42
67354;SHT30;54238;52.278;21.056;2023-03-01T08:31:53;4.71;59.92
67354;SHT30;54238;52.278;21.056;2023-03-01T08:34:25;4.85;59.02
67354;SHT30;54238;52.278;21.056;2023-03-01T08:36:52;4.89;58.44
67354;SHT30;54238;52.278;21.056;2023-03-01T08:39:24;4.89;58.48
67354;SHT30;54238;52.278;21.056;2023-03-01T08:41:52;5.01;58.59
67354;SHT30;54238;52.278;21.056;2023-03-01T08:44:19;5.15;58.26
67354;SHT30;54238;52.278;21.056;2023-03-01T08:46:53;5.25;57.99
67354;SHT30;54238;52.278;21.056;2023-03-01T08:49:25;5.49;58.20
67354;SHT30;54238;52.278;21.056;2023-03-01T08:51:54;5.82;57.52
67354;SHT30;54238;52.278;21.056;2023-03-01T08:54:29;6.04;56.38
67354;SHT30;54238;52.278;21.056;2023-03-01T08:57:00;6.18;56.24
67354;SHT30;54238;52.278;21.056;2023-03-01T08:59:30;6.33;56.17
67354;SHT30;54238;52.278;21.056;2023-03-01T09:02:08;6.54;56.02
67354;SHT30;54238;52.278;21.056;2023-03-01T09:04:40;6.67;55.49
67354;SHT30;54238;52.278;21.056;2023-03-01T09:07:10;6.84;54.89
67354;SHT30;54238;52.278;21.056;2023-03-01T09:09:37;7.04;54.75
67354;SHT30;54238;52.278;21.056;2023-03-01T09:12:05;7.39;54.63
67354;SHT30;54238;52.278;21.056;2023-03-01T09:14:34;7.71;53.68
67354;SHT30;54238;52.278;21.056;2023-03-01T09:17:04;7.95;53.45
67354;SHT30;54238;52.278;21.056;2023-03-01T09:19:31;8.18;52.75
67354;SHT30;54238;52.278;21.056;2023-03-01T09:21:58;8.35;51.77
67354;SHT30;54238;52.278;21.056;2023-03-01T09:24:28;8.45;51.57
67354;SHT30;54238;52.278;21.056;2023-03-01T09:26:58;8.46;51.38
67354;SHT30;54238;52.278;21.056;2023-03-01T09:29:25;8.50;51.69
67354;SHT30;54238;52.278;21.056;2023-03-01T09:31:54;8.59;51.45
67354;SHT30;54238;52.278;21.056;2023-03-01T09:34:22;8.73;51.39
67354;SHT30;54238;52.278;21.056;2023-03-01T09:36:50;8.94;50.30
67354;SHT30;54238;52.278;21.056;2023-03-01T09:39:20;9.08;49.90
67354;SHT30;54238;52.278;21.056;2023-03-01T09:41:54;9.41;49.61
67354;SHT30;54238;52.278;21.056;2023-03-01T09:47:12;10.22;48.63
67354;SHT30;54238;52.278;21.056;2023-03-01T09:55:26;11.55;45.72
67354;SHT30;54238;52.278;21.056;2023-03-01T10:07:16;13.50;40.49
67354;SHT30;54238;52.278;21.056;2023-03-01T10:10:05;13.68;40.20
67354;SHT30;54238;52.278;21.056;2023-03-01T10:12:40;13.94;39.77
67354;SHT30;54238;52.278;21.056;2023-03-01T10:15:20;14.06;38.69
67354;SHT30;54238;52.278;21.056;2023-03-01T10:18:06;14.00;38.37
67354;SHT30;54238;52.278;21.056;2023-03-01T10:20:48;14.02;38.50
67354;SHT30;54238;52.278;21.056;2023-03-01T10:23:28;14.27;38.63
67354;SHT30;54238;52.278;21.056;2023-03-01T10:26:06;14.42;36.86
67354;SHT30;54238;52.278;21.056;2023-03-01T10:29:04;14.54;36.79
67354;SHT30;54238;52.278;21.056;2023-03-01T10:34:19;15.26;35.95
67354;SHT30;54238;52.278;21.056;2023-03-01T10:36:51;15.56;34.70
67354;SHT30;54238;52.278;21.056;2023-03-01T10:39:24;15.59;34.58
67354;SHT30;54238;52.278;21.056;2023-03-01T10:44:36;16.17;34.39
67354;SHT30;54238;52.278;21.056;2023-03-01T10:56:14;16.96;32.93
67354;SHT30;54238;52.278;21.056;2023-03-01T10:59:01;17.19;32.77
67354;SHT30;54238;52.278;21.056;2023-03-01T11:01:32;17.45;32.87
67354;SHT30;54238;52.278;21.056;2023-03-01T11:06:41;17.66;31.39
67354;SHT30;54238;52.278;21.056;2023-03-01T11:09:24;17.86;31.33
67354;SHT30;54238;52.278;21.056;2023-03-01T11:11:54;17.99;31.01
67354;SHT30;54238;52.278;21.056;2023-03-01T11:14:29;18.03;30.68
67354;SHT30;54238;52.278;21.056;2023-03-01T11:22:47;18.19;31.05
67354;SHT30;54238;52.278;21.056;2023-03-01T11:25:24;18.40;31.24
67354;SHT30;54238;52.278;21.056;2023-03-01T11:28:03;18.51;30.71
67354;SHT30;54238;52.278;21.056;2023-03-01T11:30:40;18.69;30.77
67354;SHT30;54238;52.278;21.056;2023-03-01T11:36:24;18.86;30.00
67354;SHT30;54238;52.278;21.056;2023-03-01T11:39:20;18.91;30.32
67354;SHT30;54238;52.278;21.056;2023-03-01T11:45:16;19.50;29.59
67354;SHT30;54238;52.278;21.056;2023-03-01T11:50:51;19.05;29.91
67354;SHT30;54238;52.278;21.056;2023-03-01T12:02:07;17.52;31.94
67354;SHT30;54238;52.278;21.056;2023-03-01T12:08:17;17.55;32.90
67354;SHT30;54238;52.278;21.056;2023-03-01T12:10:54;17.82;32.81
67354;SHT30;54238;52.278;21.056;2023-03-01T12:13:53;17.77;32.08
67354;SHT30;54238;52.278;21.056;2023-03-01T12:36:38;20.35;30.48
67354;SHT30;54238;52.278;21.056;2023-03-01T12:48:45;21.63;28.72
67354;SHT30;54238;52.278;21.056;2023-03-01T12:51:23;21.61;28.59
67354;SHT30;54238;52.278;21.056;2023-03-01T12:53:57;21.64;28.11
67354;SHT30;54238;52.278;21.056;2023-03-01T12:56:34;21.58;27.95
67354;SHT30;54238;52.278;21.056;2023-03-01T13:02:29;21.65;28.14
67354;SHT30;54238;52.278;21.056;2023-03-01T13:11:24;21.82;27.96
67354;SHT30;54238;52.278;21.056;2023-03-01T13:13:52;21.90;28.15
67354;SHT30;54238;52.278;21.056;2023-03-01T13:16:51;22.56;27.70
67354;SHT30;54238;52.278;21.056;2023-03-01T13:19:24;23.04;26.54
67354;SHT30;54238;52.278;21.056;2023-03-01T13:21:55;23.00;26.46
67354;SHT30;54238;52.278;21.056;2023-03-01T13:29:53;22.78;26.47
67354;SHT30;54238;52.278;21.056;2023-03-01T13:33:33;21.84;27.06
67354;SHT30;54238;52.278;21.056;2023-03-01T13:35:59;21.44;27.55
67354;SHT30;54238;52.278;21.056;2023-03-01T13:38:46;21.45;27.75
67354;SHT30;54238;52.278;21.056;2023-03-01T13:46:57;22.17;26.63
67354;SHT30;54238;52.278;21.056;2023-03-01T13:55:14;22.40;26.89
67354;SHT30;54238;52.278;21.056;2023-03-01T13:58:19;22.49;26.82
67354;SHT30;54238;52.278;21.056;2023-03-01T14:01:03;22.15;27.06
67354;SHT30;54238;52.278;21.056;2023-03-01T14:03:49;22.50;26.58
67354;SHT30;54238;52.278;21.056;2023-03-01T14:06:23;22.58;26.29
67354;SHT30;54238;52.278;21.056;2023-03-01T14:20:33;22.86;25.96
67354;SHT30;54238;52.278;21.056;2023-03-01T14:23:13;22.85;25.49
67354;SHT30;54238;52.278;21.056;2023-03-01T14:25:51;22.65;26.04
67354;SHT30;54238;52.278;21.056;2023-03-01T14:28:31;23.01;26.12
67354;SHT30;54238;52.278;21.056;2023-03-01T14:31:03;23.01;25.84
67354;SHT30;54238;52.278;21.056;2023-03-01T14:34:17;22.67;26.47
67354;SHT30;54238;52.278;21.056;2023-03-01T14:36:50;22.16;26.53
67354;SHT30;54238;52.278;21.056;2023-03-01T14:39:19;21.89;26.93
67354;SHT30;54238;52.278;21.056;2023-03-01T14:41:52;21.10;27.63
67354;SHT30;54238;52.278;21.056;2023-03-01T14:44:24;20.50;28.47
67354;SHT30;54238;52.278;21.056;2023-03-01T14:46:52;20.59;28.67
67354;SHT30;54238;52.278;21.056;2023-03-01T14:49:29;20.52;28.89
67354;SHT30;54238;52.278;21.056;2023-03-01T14:52:05;20.36;28.92
67354;SHT30;54238;52.278;21.056;2023-03-01T14:54:54;20.18;29.35
67354;SHT30;54238;52.278;21.056;2023-03-01T14:57:22;20.02;29.66
67354;SHT30;54238;52.278;21.056;2023-03-01T14:59:55;19.88;29.93
67354;SHT30;54238;52.278;21.056;2023-03-01T15:02:36;19.44;30.43
67354;SHT30;54238;52.278;21.056;2023-03-01T15:05:07;19.07;31.04
67354;SHT30;54238;52.278;21.056;2023-03-01T15:07:41;18.31;31.71
67354;SHT30;54238;52.278;21.056;2023-03-01T15:10:19;17.42;32.80
67354;SHT30;54238;52.278;21.056;2023-03-01T15:13:13;16.57;34.07
67354;SHT30;54238;52.278;21.056;2023-03-01T15:16:00;16.08;35.11
67354;SHT30;54238;52.278;21.056;2023-03-01T15:18:35;15.98;35.68
67354;SHT30;54238;52.278;21.056;2023-03-01T15:21:13;15.92;36.00
67354;SHT30;54238;52.278;21.056;2023-03-01T15:23:55;15.41;36.71
67354;SHT30;54238;52.278;21.056;2023-03-01T15:26:36;14.65;37.87
67354;SHT30;54238;52.278;21.056;2023-03-01T15:29:17;14.37;38.70
67354;SHT30;54238;52.278;21.056;2023-03-01T15:32:02;14.18;39.23
67354;SHT30;54238;52.278;21.056;2023-03-01T15:34:38;13.62;40.19
67354;SHT30;54238;52.278;21.056;2023-03-01T15:37:36;13.01;41.31
67354;SHT30;54238;52.278;21.056;2023-03-01T15:40:26;12.40;42.55
67354;SHT30;54238;52.278;21.056;2023-03-01T15:43:05;11.96;43.53
67354;SHT30;54238;52.278;21.056;2023-03-01T15:45:58;11.67;44.57
67354;SHT30;54238;52.278;21.056;2023-03-01T15:48:26;11.54;44.99
67354;SHT30;54238;52.278;21.056;2023-03-01T15:50:56;11.31;45.51
67354;SHT30;54238;52.278;21.056;2023-03-01T15:53:26;11.02;46.17
67354;SHT30;54238;52.278;21.056;2023-03-01T15:56:00;10.72;47.03
67354;SHT30;54238;52.278;21.056;2023-03-01T15:58:30;10.44;47.66
67354;SHT30;54238;52.278;21.056;2023-03-01T16:00:59;10.18;48.31
67354;SHT30;54238;52.278;21.056;2023-03-01T16:03:29;9.99;48.83
67354;SHT30;54238;52.278;21.056;2023-03-01T16:05:56;9.86;49.31
67354;SHT30;54238;52.278;21.056;2023-03-01T16:08:27;9.65;50.17
67354;SHT30;54238;52.278;21.056;2023-03-01T16:10:54;9.40;50.82
67354;SHT30;54238;52.278;21.056;2023-03-01T16:13:27;9.19;51.20
67354;SHT30;54238;52.278;21.056;2023-03-01T16:15:59;9.01;51.83
67354;SHT30;54238;52.278;21.056;2023-03-01T16:18:26;8.83;52.56
67354;SHT30;54238;52.278;21.056;2023-03-01T16:20:53;8.67;52.80
67354;SHT30;54238;52.278;21.056;2023-03-01T16:23:21;8.53;53.38
67354;SHT30;54238;52.278;21.056;2023-03-01T16:25:53;8.40;53.62
67354;SHT30;54238;52.278;21.056;2023-03-01T16:28:21;8.29;54.05
67354;SHT30;54238;52.278;21.056;2023-03-01T16:30:51;8.19;54.58
67354;SHT30;54238;52.278;21.056;2023-03-01T16:33:25;8.07;54.77
67354;SHT30;54238;52.278;21.056;2023-03-01T16:35:52;7.97;55.29
67354;SHT30;54238;52.278;21.056;2023-03-01T16:38:21;7.88;55.70
67354;SHT30;54238;52.278;21.056;2023-03-01T16:40:53;7.77;56.11
67354;SHT30;54238;52.278;21.056;2023-03-01T16:43:26;7.67;56.43
67354;SHT30;54238;52.278;21.056;2023-03-01T16:45:56;7.58;56.90
67354;SHT30;54238;52.278;21.056;2023-03-01T16:48:25;7.48;57.45
67354;SHT30;54238;52.278;21.056;2023-03-01T16:50:56;7.39;57.84
67354;SHT30;54238;52.278;21.056;2023-03-01T16:53:28;7.30;57.97
67354;SHT30;54238;52.278;21.056;2023-03-01T16:55:58;7.22;58.33
67354;SHT30;54238;52.278;21.056;2023-03-01T16:58:30;7.14;58.57
67354;SHT30;54238;52.278;21.056;2023-03-01T17:01:03;7.04;58.91
67354;SHT30;54238;52.278;21.056;2023-03-01T17:03:38;6.94;59.01
67354;SHT30;54238;52.278;21.056;2023-03-01T17:06:08;6.86;59.10
67354;SHT30;54238;52.278;21.056;2023-03-01T17:08:39;6.81;59.28
67354;SHT30;54238;52.278;21.056;2023-03-01T17:11:09;6.75;59.50
67354;SHT30;54238;52.278;21.056;2023-03-01T17:13:48;6.70;59.47
67354;SHT30;54238;52.278;21.056;2023-03-01T17:16:18;6.65;59.76
67354;SHT30;54238;52.278;21.056;2023-03-01T17:18:47;6.60;60.09
67354;SHT30;54238;52.278;21.056;2023-03-01T17:21:19;6.55;60.02
67354;SHT30;54238;52.278;21.056;2023-03-01T17:23:53;6.49;60.31
67354;SHT30;54238;52.278;21.056;2023-03-01T17:26:25;6.45;60.52
67354;SHT30;54238;52.278;21.056;2023-03-01T17:28:57;6.39;60.76
67354;SHT30;54238;52.278;21.056;2023-03-01T17:31:24;6.35;60.98
67354;SHT30;54238;52.278;21.056;2023-03-01T17:33:54;6.32;61.10
67354;SHT30;54238;52.278;21.056;2023-03-01T17:36:23;6.29;61.21
67354;SHT30;54238;52.278;21.056;2023-03-01T17:38:53;6.26;61.48
67354;SHT30;54238;52.278;21.056;2023-03-01T17:41:20;6.22;61.60
67354;SHT30;54238;52.278;21.056;2023-03-01T17:43:49;6.19;61.71
67354;SHT30;54238;52.278;21.056;2023-03-01T17:46:22;6.16;61.97
67354;SHT30;54238;52.278;21.056;2023-03-01T17:48:54;6.14;62.06
67354;SHT30;54238;52.278;21.056;2023-03-01T17:51:23;6.11;62.28
67354;SHT30;54238;52.278;21.056;2023-03-01T17:53:51;6.06;62.70
67354;SHT30;54238;52.278;21.056;2023-03-01T17:56:20;6.02;63.06
67354;SHT30;54238;52.278;21.056;2023-03-01T17:58:47;5.98;62.94
67354;SHT30;54238;52.278;21.056;2023-03-01T18:01:16;5.94;63.31
67354;SHT30;54238;52.278;21.056;2023-03-01T18:03:51;5.90;63.65
67354;SHT30;54238;52.278;21.056;2023-03-01T18:06:26;5.86;63.63
67354;SHT30;54238;52.278;21.056;2023-03-01T18:08:55;5.82;63.99
67354;SHT30;54238;52.278;21.056;2023-03-01T18:11:22;5.78;64.34
67354;SHT30;54238;52.278;21.056;2023-03-01T18:13:53;5.74;64.34
67354;SHT30;54238;52.278;21.056;2023-03-01T18:16:22;5.72;64.54
67354;SHT30;54238;52.278;21.056;2023-03-01T18:18:53;5.68;64.43